Time;durP1;ratioP1;P1;durP2;ratioP2;P2;SDS_P1;SDS_P2;PMS_P1;PMS_P2;Temp;Humidity;BMP_temperature;BMP_pressure;BME280_temperature;BME280_humidity;BME280_pressure;Samples;Min_cycle;Max_cycle;Signal;HPM_P1;HPM_P2
2022/04/17 00:00:17;;;;;;;0.40;0.20;;;4.90;99.90;;;;;;5002978;28;20475;-87
2022/04/17 00:02:44;;;;;;;0.30;0.10;;;4.80;99.90;;;;;;5006929;28;20504;-86
2022/04/17 00:05:12;;;;;;;0.30;0.20;;;4.80;99.90;;;;;;5001412;28;21383;-86
2022/04/17 00:07:39;;;;;;;0.30;0.10;;;4.80;99.90;;;;;;5007733;28;20458;-86
2022/04/17 00:10:08;;;;;;;0.30;0.20;;;4.70;99.90;;;;;;5005504;28;20462;-87
2022/04/17 00:12:35;;;;;;;0.70;0.70;;;4.60;99.90;;;;;;5004201;28;20514;-87
2022/04/17 00:15:04;;;;;;;0.43;0.43;;;4.50;99.90;;;;;;5007029;28;20505;-87
2022/04/17 00:17:32;;;;;;;0.30;0.20;;;4.40;99.90;;;;;;5004694;28;20918;-88
2022/04/17 00:20:00;;;;;;;0.70;0.60;;;4.30;99.90;;;;;;5003522;28;20988;-89
2022/04/17 00:22:27;;;;;;;0.30;0.20;;;4.30;99.90;;;;;;5004922;28;20462;-87
2022/04/17 00:24:54;;;;;;;0.37;0.30;;;4.30;99.90;;;;;;5006631;28;20499;-87
2022/04/17 00:27:21;;;;;;;0.60;0.33;;;4.30;99.90;;;;;;5003169;28;20454;-91
2022/04/17 00:29:48;;;;;;;0.43;0.43;;;4.30;99.90;;;;;;5007011;28;21098;-86
2022/04/17 00:32:15;;;;;;;0.30;0.10;;;4.30;99.90;;;;;;5009541;28;20453;-89
2022/04/17 00:34:45;;;;;;;0.50;0.50;;;4.20;99.90;;;;;;5003512;28;20482;-87
2022/04/17 00:37:12;;;;;;;0.30;0.20;;;4.20;99.90;;;;;;5007532;28;20812;-89
2022/04/17 00:39:40;;;;;;;0.30;0.10;;;4.20;99.90;;;;;;5004280;28;20481;-87
2022/04/17 00:42:09;;;;;;;0.30;0.20;;;4.10;99.90;;;;;;5008611;28;20533;-88
2022/04/17 00:44:36;;;;;;;0.30;0.20;;;3.90;99.90;;;;;;5002953;28;20519;-87
2022/04/17 00:47:03;;;;;;;0.87;0.87;;;3.80;99.90;;;;;;5001778;28;20878;-89
2022/04/17 00:49:30;;;;;;;0.30;0.20;;;3.70;99.90;;;;;;5005137;28;20586;-90
2022/04/17 00:51:59;;;;;;;0.80;0.60;;;3.50;99.90;;;;;;5007173;28;20458;-89
2022/04/17 00:54:29;;;;;;;0.40;0.30;;;3.50;99.90;;;;;;5007036;28;20482;-90
2022/04/17 00:56:57;;;;;;;0.40;0.40;;;3.40;99.90;;;;;;5009217;28;20462;-87
2022/04/17 00:59:25;;;;;;;0.60;0.60;;;3.20;99.90;;;;;;5010334;28;20497;-87
2022/04/17 01:01:53;;;;;;;2.20;0.40;;;3.10;99.90;;;;;;5004972;28;21105;-87
2022/04/17 01:04:20;;;;;;;0.30;0.20;;;3.00;99.90;;;;;;5009478;28;20788;-87
2022/04/17 01:06:47;;;;;;;0.30;0.20;;;2.90;99.90;;;;;;5007531;28;20453;-86
2022/04/17 01:09:16;;;;;;;0.30;0.10;;;2.90;99.90;;;;;;5010218;28;20443;-87
2022/04/17 01:11:44;;;;;;;0.30;0.10;;;2.90;99.90;;;;;;5006404;28;20462;-88
2022/04/17 01:14:12;;;;;;;0.30;0.20;;;2.80;99.90;;;;;;5005458;28;20490;-88
2022/04/17 01:16:40;;;;;;;0.30;0.10;;;2.70;99.90;;;;;;5005262;28;20466;-87
2022/04/17 01:19:12;;;;;;;0.40;0.20;;;2.60;99.90;;;;;;5009194;28;20454;-87
2022/04/17 01:21:41;;;;;;;0.83;0.67;;;2.60;99.90;;;;;;5006451;28;20572;-87
2022/04/17 01:26:57;;;;;;;0.30;0.20;;;2.50;99.90;;;;;;5009188;28;20520;-87
2022/04/17 01:29:26;;;;;;;0.30;0.20;;;2.50;99.90;;;;;;5006512;28;20443;-87
2022/04/17 01:31:54;;;;;;;0.40;0.40;;;2.40;99.90;;;;;;5009509;28;20474;-87
2022/04/17 01:34:22;;;;;;;0.30;0.10;;;2.30;99.90;;;;;;5027404;28;20481;-89
2022/04/17 01:36:51;;;;;;;0.30;0.10;;;2.30;99.90;;;;;;5025748;28;20996;-88
2022/04/17 01:39:19;;;;;;;0.30;0.10;;;2.30;99.90;;;;;;5011275;28;20521;-87
2022/04/17 01:41:46;;;;;;;0.30;0.10;;;2.20;99.90;;;;;;5010629;28;20509;-88
2022/04/17 01:44:13;;;;;;;0.30;0.10;;;2.10;99.90;;;;;;5006293;28;20613;-88
2022/04/17 01:46:40;;;;;;;0.30;0.10;;;2.10;99.90;;;;;;5006751;28;20617;-87
2022/04/17 01:49:07;;;;;;;0.30;0.10;;;2.00;99.90;;;;;;5009825;28;20525;-88
2022/04/17 01:51:37;;;;;;;0.83;0.83;;;2.10;99.90;;;;;;5009009;28;21213;-88
2022/04/17 01:54:07;;;;;;;0.30;0.10;;;2.10;99.90;;;;;;5009258;28;20604;-87
2022/04/17 01:56:34;;;;;;;0.30;0.10;;;2.10;99.90;;;;;;5004769;28;20470;-87
2022/04/17 01:59:01;;;;;;;0.87;0.87;;;2.10;99.90;;;;;;5009889;28;20470;-88
2022/04/17 02:01:29;;;;;;;0.63;0.63;;;2.10;99.90;;;;;;5008545;28;20463;-87
2022/04/17 02:03:56;;;;;;;0.60;0.60;;;2.00;99.90;;;;;;5006750;28;21182;-89
2022/04/17 02:06:23;;;;;;;0.30;0.10;;;1.90;99.90;;;;;;5005274;28;20474;-87
2022/04/17 02:08:51;;;;;;;0.30;0.10;;;1.90;99.90;;;;;;5008619;28;20454;-89
2022/04/17 02:11:19;;;;;;;0.30;0.10;;;2.00;99.90;;;;;;5009899;28;21031;-87
2022/04/17 02:13:47;;;;;;;0.30;0.10;;;2.00;99.90;;;;;;5011814;28;20486;-89
2022/04/17 02:16:14;;;;;;;0.30;0.10;;;1.90;99.90;;;;;;5008576;28;20461;-88
2022/04/17 02:18:42;;;;;;;0.40;0.30;;;1.90;99.90;;;;;;5006949;28;20470;-87
2022/04/17 02:21:10;;;;;;;0.37;0.20;;;2.00;99.90;;;;;;5008499;28;20474;-87
2022/04/17 02:23:37;;;;;;;0.30;0.10;;;2.00;99.90;;;;;;5005495;28;20519;-86
2022/04/17 02:26:03;;;;;;;1.47;0.93;;;1.90;99.90;;;;;;5010076;28;20576;-90
2022/04/17 02:28:35;;;;;;;0.30;0.20;;;1.80;99.90;;;;;;5009193;28;20544;-88
2022/04/17 02:31:03;;;;;;;0.30;0.10;;;1.80;99.90;;;;;;5007059;28;20528;-88
2022/04/17 02:33:30;;;;;;;0.30;0.10;;;1.80;99.90;;;;;;5007702;28;20453;-89
2022/04/17 02:35:57;;;;;;;0.40;0.40;;;1.70;99.90;;;;;;5008443;28;20470;-87
2022/04/17 02:38:25;;;;;;;0.30;0.10;;;1.60;99.90;;;;;;5009011;28;20509;-87
2022/04/17 02:40:52;;;;;;;0.30;0.20;;;1.60;99.90;;;;;;5008265;28;20453;-87
2022/04/17 02:43:19;;;;;;;0.40;0.30;;;1.50;99.90;;;;;;5007853;28;21011;-87
2022/04/17 02:45:48;;;;;;;0.47;0.47;;;1.40;99.90;;;;;;5009503;28;20465;-87
2022/04/17 02:48:15;;;;;;;0.30;0.20;;;1.30;99.90;;;;;;5002544;28;21201;-90
2022/04/17 02:50:42;;;;;;;0.30;0.20;;;1.30;99.90;;;;;;5006793;28;20466;-87
2022/04/17 02:53:09;;;;;;;0.40;0.33;;;1.20;99.90;;;;;;5006936;28;20474;-86
2022/04/17 02:55:36;;;;;;;0.30;0.20;;;1.20;99.90;;;;;;5006597;28;20983;-87
2022/04/17 02:58:03;;;;;;;0.30;0.10;;;1.10;99.90;;;;;;5004397;28;20509;-87
2022/04/17 03:00:31;;;;;;;0.30;0.20;;;1.10;99.90;;;;;;5009802;28;20957;-87
2022/04/17 03:05:45;;;;;;;0.30;0.20;;;1.00;99.90;;;;;;5008503;28;20984;-87
2022/04/17 03:08:13;;;;;;;0.30;0.10;;;1.00;99.90;;;;;;5006173;28;20462;-87
2022/04/17 03:10:42;;;;;;;0.30;0.20;;;1.00;99.90;;;;;;5004303;28;20906;-87
2022/04/17 03:13:09;;;;;;;0.30;0.10;;;1.00;99.90;;;;;;5004936;28;20447;-87
2022/04/17 03:15:38;;;;;;;0.30;0.10;;;1.00;99.90;;;;;;5006917;28;20570;-88
2022/04/17 03:18:08;;;;;;;0.30;0.10;;;0.90;99.90;;;;;;5008099;28;20453;-87
2022/04/17 03:20:35;;;;;;;0.30;0.10;;;0.90;99.90;;;;;;5006781;28;20466;-89
2022/04/17 03:23:03;;;;;;;0.30;0.10;;;0.80;99.90;;;;;;5002930;28;20464;-90
2022/04/17 03:25:30;;;;;;;0.30;0.10;;;0.80;99.90;;;;;;5004955;28;21079;-89
2022/04/17 03:27:57;;;;;;;0.30;0.20;;;0.80;99.90;;;;;;5007849;28;20557;-90
2022/04/17 03:30:25;;;;;;;0.30;0.10;;;0.70;99.90;;;;;;5007266;28;20462;-88
2022/04/17 03:32:52;;;;;;;0.30;0.20;;;0.70;99.90;;;;;;5006657;28;20844;-87
2022/04/17 03:35:21;;;;;;;0.30;0.10;;;0.70;99.90;;;;;;5007351;28;20486;-86
2022/04/17 03:37:48;;;;;;;0.30;0.10;;;0.60;99.90;;;;;;5003308;28;20552;-86
2022/04/17 03:40:16;;;;;;;0.30;0.10;;;0.60;99.90;;;;;;5006905;28;20858;-87
2022/04/17 03:42:44;;;;;;;0.57;0.57;;;0.50;99.90;;;;;;5006129;28;20483;-87
2022/04/17 03:45:14;;;;;;;0.30;0.10;;;0.40;99.90;;;;;;5006189;28;20451;-87
2022/04/17 03:47:42;;;;;;;0.30;0.10;;;0.40;99.90;;;;;;5008472;28;20949;-86
2022/04/17 03:50:10;;;;;;;0.30;0.10;;;0.30;99.90;;;;;;5005477;28;20462;-88
2022/04/17 03:52:42;;;;;;;0.30;0.10;;;0.30;99.90;;;;;;5008049;28;20465;-87
2022/04/17 03:55:11;;;;;;;0.30;0.10;;;0.30;99.90;;;;;;5005036;28;20540;-86
2022/04/17 03:57:38;;;;;;;0.30;0.17;;;0.40;99.90;;;;;;5004859;28;20587;-88
2022/04/17 04:00:07;;;;;;;0.30;0.20;;;0.50;99.90;;;;;;5006166;28;20551;-88
2022/04/17 04:02:34;;;;;;;0.30;0.10;;;0.70;99.90;;;;;;5008058;28;20446;-88
2022/04/17 04:05:01;;;;;;;0.30;0.10;;;0.70;99.90;;;;;;5005110;28;20554;-88
2022/04/17 04:07:28;;;;;;;0.30;0.10;;;0.70;99.90;;;;;;5003161;28;21151;-87
2022/04/17 04:09:56;;;;;;;0.73;0.73;;;0.60;99.90;;;;;;5002611;28;20854;-87
2022/04/17 04:12:23;;;;;;;0.43;0.43;;;0.50;99.90;;;;;;5000198;28;20470;-88
2022/04/17 04:14:51;;;;;;;0.30;0.10;;;0.40;99.90;;;;;;5003757;28;21189;-88
2022/04/17 04:17:17;;;;;;;0.40;0.33;;;0.50;99.90;;;;;;5006872;28;20458;-87
2022/04/17 04:19:44;;;;;;;0.40;0.20;;;0.40;99.90;;;;;;5005034;28;20499;-88
2022/04/17 04:22:11;;;;;;;0.30;0.20;;;0.40;99.90;;;;;;5004301;28;20556;-87
2022/04/17 04:24:39;;;;;;;0.30;0.10;;;0.40;99.90;;;;;;5006623;28;20552;-88
2022/04/17 04:29:52;;;;;;;0.30;0.20;;;0.40;99.90;;;;;;5001062;28;20507;-87
2022/04/17 04:32:20;;;;;;;0.47;0.40;;;0.50;99.90;;;;;;5006034;28;20465;-87
2022/04/17 04:34:47;;;;;;;0.30;0.10;;;0.50;99.90;;;;;;5005288;28;20523;-88
2022/04/17 04:37:14;;;;;;;0.30;0.10;;;0.50;99.90;;;;;;5004636;28;20987;-87
2022/04/17 04:39:42;;;;;;;0.30;0.10;;;0.50;99.90;;;;;;5003878;28;20509;-88
2022/04/17 04:42:10;;;;;;;0.30;0.10;;;0.60;99.90;;;;;;5002084;28;20465;-88
2022/04/17 04:44:37;;;;;;;0.30;0.10;;;0.70;99.90;;;;;;5006332;28;20465;-88
2022/04/17 04:47:04;;;;;;;0.30;0.10;;;0.80;99.90;;;;;;5003979;28;20929;-88
2022/04/17 04:49:30;;;;;;;0.30;0.10;;;0.90;99.90;;;;;;5004843;28;20446;-87
2022/04/17 04:51:58;;;;;;;0.30;0.10;;;1.00;99.90;;;;;;5014195;28;20480;-87
2022/04/17 04:54:25;;;;;;;0.30;0.10;;;1.00;99.90;;;;;;5018747;28;20870;-87
2022/04/17 04:56:52;;;;;;;0.30;0.10;;;1.10;99.90;;;;;;5013717;28;20446;-87
2022/04/17 04:59:20;;;;;;;0.30;0.17;;;1.20;99.90;;;;;;5004102;28;20811;-88
2022/04/17 05:01:48;;;;;;;0.30;0.10;;;1.20;99.90;;;;;;4997440;28;20463;-89
2022/04/17 05:04:15;;;;;;;0.30;0.20;;;1.30;99.90;;;;;;4994983;28;20820;-86
2022/04/17 05:06:42;;;;;;;0.43;0.43;;;1.30;99.90;;;;;;4995026;28;21046;-89
2022/04/17 05:09:09;;;;;;;0.30;0.10;;;1.30;99.90;;;;;;5003915;28;20458;-86
2022/04/17 05:11:37;;;;;;;1.07;1.07;;;1.40;99.90;;;;;;5006971;28;20462;-86
2022/04/17 05:14:05;;;;;;;0.30;0.10;;;1.50;99.90;;;;;;5004311;28;20462;-83
2022/04/17 05:16:34;;;;;;;0.30;0.10;;;1.60;99.90;;;;;;5004061;28;20442;-82
2022/04/17 05:21:41;;;;;;;0.30;0.10;;;1.70;99.90;;;;;;4999386;28;20489;-84
2022/04/17 05:24:08;;;;;;;0.33;0.17;;;1.80;99.90;;;;;;4995088;28;20465;-84
2022/04/17 05:26:35;;;;;;;0.30;0.13;;;1.90;99.90;;;;;;5004719;28;20464;-82
2022/04/17 05:29:03;;;;;;;0.30;0.10;;;2.00;99.90;;;;;;4993842;28;20470;-82
2022/04/17 05:31:32;;;;;;;0.30;0.10;;;2.10;99.90;;;;;;4996366;28;20473;-83
2022/04/17 05:34:00;;;;;;;0.30;0.10;;;2.10;99.90;;;;;;4994009;28;21017;-83
2022/04/17 05:36:28;;;;;;;0.30;0.10;;;2.30;99.90;;;;;;4999195;28;20490;-83
2022/04/17 05:38:55;;;;;;;0.30;0.20;;;2.40;99.90;;;;;;4998922;28;20522;-84
2022/04/17 05:41:23;;;;;;;0.30;0.20;;;2.50;99.90;;;;;;4995632;28;20467;-81
2022/04/17 05:43:59;;;;;;;0.30;0.10;;;2.70;99.90;;;;;;4995407;28;20468;-89
2022/04/17 05:46:29;;;;;;;0.40;0.30;;;2.90;99.90;;;;;;4991015;28;21203;-82
2022/04/17 05:48:57;;;;;;;0.40;0.30;;;3.10;99.90;;;;;;4994272;28;20493;-84
2022/04/17 05:51:26;;;;;;;0.30;0.20;;;3.20;99.90;;;;;;4995726;28;20468;-83
2022/04/17 05:53:56;;;;;;;0.30;0.10;;;3.30;99.90;;;;;;4993298;28;20470;-84
2022/04/17 05:56:23;;;;;;;1.03;1.03;;;3.30;99.90;;;;;;4992643;28;20484;-84
2022/04/17 05:58:50;;;;;;;0.30;0.10;;;3.30;99.90;;;;;;4995464;28;20467;-84
2022/04/17 06:01:17;;;;;;;0.30;0.20;;;3.30;99.90;;;;;;4993940;28;21164;-83
2022/04/17 06:03:44;;;;;;;0.30;0.10;;;3.40;99.90;;;;;;4995066;28;20540;-84
2022/04/17 06:06:12;;;;;;;0.40;0.23;;;3.60;99.90;;;;;;5001091;28;20554;-85
2022/04/17 06:08:41;;;;;;;1.83;1.33;;;3.70;99.90;;;;;;4997716;28;20589;-86
2022/04/17 06:11:08;;;;;;;0.30;0.20;;;4.00;99.90;;;;;;4992634;28;20542;-86
2022/04/17 06:13:35;;;;;;;0.50;0.50;;;4.10;99.90;;;;;;4998609;28;20470;-88
2022/04/17 06:16:02;;;;;;;1.00;0.73;;;4.40;99.90;;;;;;4997634;28;20591;-88
2022/04/17 06:18:29;;;;;;;0.37;0.23;;;4.50;99.90;;;;;;4994021;28;21258;-87
2022/04/17 06:20:56;;;;;;;0.30;0.20;;;4.70;99.90;;;;;;4999576;28;20502;-88
2022/04/17 06:23:23;;;;;;;0.30;0.20;;;4.90;99.90;;;;;;5005048;28;20459;-89
2022/04/17 06:25:51;;;;;;;0.33;0.20;;;5.10;99.90;;;;;;5005398;28;20604;-89
2022/04/17 06:28:18;;;;;;;2.10;2.00;;;5.10;99.90;;;;;;5012265;28;20509;-86
2022/04/17 06:30:45;;;;;;;0.40;0.27;;;5.30;99.90;;;;;;5005501;28;20459;-88
2022/04/17 06:33:12;;;;;;;0.30;0.20;;;5.20;99.90;;;;;;5001369;28;20541;-88
2022/04/17 06:35:39;;;;;;;0.50;0.30;;;5.50;99.90;;;;;;4994043;28;20501;-87
2022/04/17 06:38:08;;;;;;;0.30;0.20;;;5.60;99.90;;;;;;4993770;28;20467;-90
2022/04/17 06:40:37;;;;;;;0.40;0.27;;;5.70;99.90;;;;;;4992613;28;21321;-86
2022/04/17 06:43:08;;;;;;;0.30;0.10;;;5.80;99.90;;;;;;5006777;28;20460;-86
2022/04/17 06:45:35;;;;;;;1.17;1.07;;;5.70;99.90;;;;;;5005830;28;21006;-86
2022/04/17 06:48:12;;;;;;;1.03;1.03;;;5.80;99.90;;;;;;5004406;28;20937;-86
2022/04/17 06:50:39;;;;;;;0.30;0.20;;;6.00;99.90;;;;;;5006367;28;20443;-85
2022/04/17 06:53:06;;;;;;;0.30;0.20;;;6.30;99.90;;;;;;4996115;28;20470;-90
2022/04/17 06:55:34;;;;;;;0.30;0.20;;;6.60;99.90;;;;;;4997145;28;20535;-87
2022/04/17 06:58:01;;;;;;;0.30;0.10;;;6.60;99.90;;;;;;4996735;28;20909;-86
2022/04/17 07:00:29;;;;;;;0.30;0.10;;;6.60;99.90;;;;;;4994246;28;20844;-85
2022/04/17 07:02:56;;;;;;;0.30;0.20;;;6.80;99.90;;;;;;4989350;28;20462;-84
2022/04/17 07:05:23;;;;;;;0.30;0.10;;;6.70;99.90;;;;;;4995108;28;20507;-85
2022/04/17 07:07:59;;;;;;;0.30;0.20;;;6.50;99.90;;;;;;4992624;28;20538;-86
2022/04/17 07:10:26;;;;;;;0.43;0.37;;;6.40;99.90;;;;;;4992962;28;20473;-87
2022/04/17 07:12:53;;;;;;;0.30;0.20;;;6.40;99.90;;;;;;4997662;28;20450;-84
2022/04/17 07:15:21;;;;;;;0.30;0.20;;;6.60;99.90;;;;;;4989032;28;20487;-86
2022/04/17 07:17:49;;;;;;;1.27;1.03;;;6.80;99.90;;;;;;4991622;28;20505;-89
2022/04/17 07:20:17;;;;;;;0.30;0.20;;;6.90;99.90;;;;;;4992307;28;20486;-86
2022/04/17 07:22:45;;;;;;;0.30;0.10;;;6.80;99.90;;;;;;4990735;28;20530;-87
2022/04/17 07:25:13;;;;;;;0.30;0.20;;;6.60;99.90;;;;;;4991664;28;21182;-87
2022/04/17 07:27:42;;;;;;;0.30;0.20;;;6.80;99.90;;;;;;5005919;28;20527;-86
2022/04/17 07:30:14;;;;;;;0.40;0.30;;;6.90;99.90;;;;;;5005389;28;20458;-86
2022/04/17 07:32:42;;;;;;;0.30;0.20;;;7.20;99.90;;;;;;5006136;28;20496;-87
2022/04/17 07:35:12;;;;;;;0.60;0.60;;;7.40;99.90;;;;;;5007639;28;20827;-87
2022/04/17 07:37:39;;;;;;;0.50;0.50;;;7.80;99.90;;;;;;5007199;28;20503;-87
2022/04/17 07:40:14;;;;;;;0.30;0.20;;;8.30;99.90;;;;;;5006021;28;20517;-85
2022/04/17 07:42:41;;;;;;;0.40;0.30;;;8.50;99.80;;;;;;5005461;28;21152;-86
2022/04/17 07:45:09;;;;;;;1.83;1.20;;;8.30;97.20;;;;;;4999275;28;20470;-85
2022/04/17 07:47:36;;;;;;;0.30;0.20;;;8.50;95.50;;;;;;4999545;28;21138;-87
2022/04/17 07:50:07;;;;;;;0.30;0.20;;;8.00;93.60;;;;;;5002811;28;20489;-88
2022/04/17 07:52:35;;;;;;;0.30;0.20;;;7.80;94.10;;;;;;5000187;28;20521;-86
2022/04/17 07:55:03;;;;;;;0.30;0.20;;;8.20;94.60;;;;;;5006793;28;20485;-85
2022/04/17 07:57:50;;;;;;;1.00;1.00;;;8.50;94.60;;;;;;5006779;28;21050;-83
2022/04/17 08:00:19;;;;;;;0.40;0.30;;;8.60;93.40;;;;;;4987971;28;20471;-84
2022/04/17 08:02:50;;;;;;;0.53;0.53;;;8.90;94.10;;;;;;5013737;28;20489;-82
2022/04/17 08:05:17;;;;;;;0.73;0.73;;;8.80;94.20;;;;;;5028094;28;20824;-83
2022/04/17 08:07:45;;;;;;;0.30;0.20;;;9.10;94.20;;;;;;5009717;28;20466;-84
2022/04/17 08:10:12;;;;;;;0.30;0.20;;;9.00;93.80;;;;;;5001999;28;20508;-83
2022/04/17 08:12:41;;;;;;;0.30;0.10;;;8.90;94.00;;;;;;5005647;28;20454;-84
2022/04/17 08:15:09;;;;;;;0.30;0.23;;;8.70;94.10;;;;;;5008747;28;20443;-84
2022/04/17 08:17:36;;;;;;;0.30;0.20;;;8.60;90.70;;;;;;5003256;28;20513;-85
2022/04/17 08:20:03;;;;;;;0.30;0.20;;;8.40;90.00;;;;;;4993791;28;20463;-86
2022/04/17 08:22:30;;;;;;;0.70;0.70;;;8.40;87.60;;;;;;5000520;28;20975;-85
2022/04/17 08:24:59;;;;;;;0.40;0.30;;;8.50;88.80;;;;;;5000149;28;20926;-87
2022/04/17 08:27:26;;;;;;;0.37;0.23;;;8.50;87.90;;;;;;5005772;28;20465;-85
2022/04/17 08:29:53;;;;;;;0.30;0.20;;;8.60;90.70;;;;;;5007210;28;20466;-85
2022/04/17 08:32:20;;;;;;;0.40;0.33;;;8.50;90.50;;;;;;4994097;28;21028;-85
2022/04/17 08:34:47;;;;;;;0.40;0.30;;;8.80;90.30;;;;;;5006671;28;20486;-86
2022/04/17 08:37:14;;;;;;;1.90;0.50;;;9.30;91.10;;;;;;5003950;28;20483;-86
2022/04/17 08:39:41;;;;;;;0.30;0.20;;;9.50;90.90;;;;;;5003002;28;20954;-86
2022/04/17 08:42:11;;;;;;;0.30;0.20;;;9.60;89.70;;;;;;5003469;28;20494;-85
2022/04/17 08:44:38;;;;;;;0.30;0.10;;;9.90;89.10;;;;;;4996917;28;20990;-87
2022/04/17 08:47:07;;;;;;;0.30;0.20;;;9.60;85.40;;;;;;4990983;28;20475;-86
2022/04/17 08:49:35;;;;;;;0.30;0.10;;;9.50;83.40;;;;;;4996004;28;20790;-85
2022/04/17 08:52:03;;;;;;;0.40;0.20;;;9.70;87.10;;;;;;4994938;28;20745;-84
2022/04/17 08:54:32;;;;;;;0.30;0.20;;;9.50;85.90;;;;;;4991693;28;20459;-84
2022/04/17 08:56:59;;;;;;;0.30;0.10;;;9.80;85.70;;;;;;4990616;28;20589;-85
2022/04/17 08:59:27;;;;;;;0.30;0.20;;;10.20;83.70;;;;;;4997654;28;21017;-88
2022/04/17 09:01:54;;;;;;;0.30;0.20;;;10.40;80.50;;;;;;4993058;28;20470;-90
2022/04/17 09:04:22;;;;;;;0.40;0.30;;;10.40;74.80;;;;;;5005175;28;20508;-89
2022/04/17 09:06:50;;;;;;;0.30;0.20;;;10.80;74.40;;;;;;4994031;28;20544;-88
2022/04/17 09:09:20;;;;;;;0.30;0.20;;;11.50;79.40;;;;;;5000410;28;20474;-88
2022/04/17 09:11:55;;;;;;;0.30;0.20;;;11.50;73.50;;;;;;4996276;28;20549;-90
2022/04/17 09:14:23;;;;;;;0.30;0.20;;;12.00;81.20;;;;;;4998034;28;20548;-89
2022/04/17 09:16:52;;;;;;;0.40;0.30;;;12.20;79.10;;;;;;5006523;28;20478;-89
2022/04/17 09:19:20;;;;;;;1.53;0.30;;;11.50;66.80;;;;;;5000085;28;20509;-88
2022/04/17 09:21:54;;;;;;;0.30;0.20;;;10.90;61.10;;;;;;5004387;28;21227;-88
2022/04/17 09:24:24;;;;;;;0.30;0.20;;;10.90;59.00;;;;;;5003534;28;20520;-87
2022/04/17 09:26:56;;;;;;;0.30;0.20;;;10.80;57.00;;;;;;5008518;28;20943;-87
2022/04/17 09:29:24;;;;;;;2.93;0.60;;;10.60;61.50;;;;;;5012224;28;20528;-89
2022/04/17 09:32:03;;;;;;;0.40;0.27;;;10.00;59.70;;;;;;5006648;28;20866;-88
2022/04/17 09:34:42;;;;;;;0.30;0.20;;;9.60;63.00;;;;;;5012844;28;20470;-89
2022/04/17 09:37:13;;;;;;;0.30;0.20;;;9.60;64.60;;;;;;5003703;28;20552;-88
2022/04/17 09:39:41;;;;;;;0.50;0.30;;;9.40;60.60;;;;;;5004622;28;20458;-91
2022/04/17 09:42:08;;;;;;;0.30;0.20;;;9.90;65.20;;;;;;5002390;28;20461;-89
2022/04/17 09:44:45;;;;;;;0.40;0.33;;;10.80;64.50;;;;;;5010085;28;20462;-89
2022/04/17 09:47:16;;;;;;;0.30;0.20;;;11.00;60.00;;;;;;5007135;28;21003;-86
2022/04/17 09:50:00;;;;;;;0.30;0.20;;;11.30;65.00;;;;;;5015670;28;20553;-85
2022/04/17 09:52:31;;;;;;;0.50;0.50;;;11.40;67.00;;;;;;5007087;28;20461;-85
2022/04/17 09:54:59;;;;;;;0.30;0.20;;;11.90;64.80;;;;;;5003959;28;20458;-86
2022/04/17 09:57:31;;;;;;;0.30;0.20;;;11.90;68.40;;;;;;5019014;28;20574;-87
2022/04/17 10:00:05;;;;;;;0.40;0.30;;;11.50;60.60;;;;;;5008331;28;20520;-85
2022/04/17 10:02:35;;;;;;;0.40;0.30;;;11.20;66.90;;;;;;5001585;28;20533;-86
2022/04/17 10:05:03;;;;;;;0.30;0.20;;;10.30;62.20;;;;;;5003345;28;20462;-84
2022/04/17 10:07:31;;;;;;;0.30;0.20;;;10.40;61.00;;;;;;5012808;28;20464;-86
2022/04/17 10:09:58;;;;;;;0.30;0.20;;;10.10;62.40;;;;;;5007985;28;20517;-85
2022/04/17 10:12:26;;;;;;;0.30;0.20;;;10.20;61.00;;;;;;5011342;28;20459;-85
2022/04/17 10:14:53;;;;;;;0.83;0.50;;;10.10;63.30;;;;;;5006847;28;20827;-87
2022/04/17 10:17:21;;;;;;;0.30;0.20;;;9.90;64.40;;;;;;5011499;28;20481;-85
2022/04/17 10:19:51;;;;;;;0.30;0.20;;;9.90;64.10;;;;;;5006681;28;20459;-86
2022/04/17 10:22:21;;;;;;;0.30;0.20;;;9.80;64.40;;;;;;5004797;28;21181;-86
2022/04/17 10:24:52;;;;;;;0.30;0.20;;;9.90;65.90;;;;;;5007864;28;20541;-86
2022/04/17 10:27:24;;;;;;;0.40;0.20;;;10.20;67.00;;;;;;5006491;28;20493;-85
2022/04/17 10:29:57;;;;;;;0.40;0.30;;;10.70;64.10;;;;;;5005536;28;20959;-84
2022/04/17 10:32:51;;;;;;;0.33;0.20;;;11.40;62.60;;;;;;5006656;28;20894;-84
2022/04/17 10:35:26;;;;;;;0.30;0.20;;;11.70;63.60;;;;;;5006152;28;20482;-84
2022/04/17 10:38:24;;;;;;;0.40;0.30;;;12.00;61.10;;;;;;5007550;28;20980;-85
2022/04/17 10:40:56;;;;;;;0.30;0.20;;;12.00;62.00;;;;;;5008563;28;20505;-85
2022/04/17 10:43:23;;;;;;;0.40;0.30;;;12.40;61.90;;;;;;5003493;28;20463;-84
2022/04/17 10:46:12;;;;;;;0.30;0.20;;;12.40;61.10;;;;;;5006539;28;20583;-86
2022/04/17 10:48:44;;;;;;;0.67;0.67;;;11.80;57.90;;;;;;5004158;28;20463;-85
2022/04/17 10:51:17;;;;;;;0.40;0.20;;;10.60;57.80;;;;;;5007948;28;20458;-83
2022/04/17 10:54:07;;;;;;;0.40;0.20;;;10.60;59.90;;;;;;5005963;28;20466;-86
2022/04/17 10:56:36;;;;;;;0.30;0.20;;;10.60;59.50;;;;;;5001001;28;20489;-86
2022/04/17 10:59:06;;;;;;;0.30;0.20;;;10.90;60.70;;;;;;5003762;28;20469;-85
2022/04/17 11:01:53;;;;;;;0.30;0.10;;;11.60;64.80;;;;;;4995471;28;20853;-85
2022/04/17 11:04:22;;;;;;;0.30;0.20;;;11.70;58.60;;;;;;5000639;28;20470;-84
2022/04/17 11:07:22;;;;;;;0.37;0.23;;;11.30;59.70;;;;;;5006361;28;20466;-85
2022/04/17 11:10:04;;;;;;;1.07;0.50;;;11.30;59.00;;;;;;5002613;28;20950;-85
2022/04/17 11:12:31;;;;;;;0.77;0.67;;;11.30;60.40;;;;;;5006500;28;20474;-86
2022/04/17 11:15:22;;;;;;;0.33;0.23;;;11.60;62.20;;;;;;5021284;28;20485;-87
2022/04/17 11:17:51;;;;;;;0.30;0.20;;;12.40;60.70;;;;;;5016486;28;20541;-88
2022/04/17 11:20:19;;;;;;;0.30;0.20;;;13.00;62.00;;;;;;5003030;28;20651;-88
2022/04/17 11:22:47;;;;;;;0.50;0.50;;;13.30;59.90;;;;;;5007169;28;20530;-87
2022/04/17 11:25:15;;;;;;;0.30;0.20;;;13.40;62.20;;;;;;5004627;28;20461;-87
2022/04/17 11:27:47;;;;;;;0.30;0.20;;;13.70;61.30;;;;;;5000008;28;20930;-86
2022/04/17 11:30:32;;;;;;;0.33;0.23;;;13.60;58.40;;;;;;5007935;28;21100;-85
2022/04/17 11:33:02;;;;;;;0.30;0.20;;;13.40;56.10;;;;;;5003090;28;20469;-88
2022/04/17 11:35:31;;;;;;;0.30;0.20;;;13.20;57.20;;;;;;5003968;28;20946;-87
2022/04/17 11:38:02;;;;;;;0.30;0.20;;;13.60;58.20;;;;;;5002460;28;20487;-86
2022/04/17 11:40:32;;;;;;;0.53;0.53;;;13.70;58.70;;;;;;5004700;28;20491;-86
2022/04/17 11:43:08;;;;;;;0.30;0.20;;;13.80;56.00;;;;;;5006839;28;20459;-88
2022/04/17 11:45:35;;;;;;;0.50;0.50;;;14.10;56.70;;;;;;5004016;28;20460;-87
2022/04/17 11:48:08;;;;;;;0.50;0.20;;;14.00;57.40;;;;;;5007194;28;20469;-87
2022/04/17 11:50:36;;;;;;;0.30;0.20;;;13.80;56.00;;;;;;5007714;28;20527;-88
2022/04/17 11:53:06;;;;;;;0.30;0.20;;;14.00;55.40;;;;;;4998625;28;20834;-88
2022/04/17 11:55:35;;;;;;;3.03;0.47;;;13.30;53.40;;;;;;4996254;28;20545;-89
2022/04/17 11:58:04;;;;;;;0.30;0.20;;;13.10;53.60;;;;;;5003449;28;21035;-86
2022/04/17 12:00:32;;;;;;;0.40;0.27;;;13.10;56.30;;;;;;5001243;28;20941;-88
2022/04/17 12:03:01;;;;;;;0.30;0.20;;;13.10;58.20;;;;;;5004960;28;20469;-88
2022/04/17 12:05:29;;;;;;;0.30;0.23;;;13.00;58.30;;;;;;5012352;28;20971;-87
2022/04/17 12:07:58;;;;;;;0.40;0.40;;;12.60;57.20;;;;;;5003360;28;20476;-86
2022/04/17 12:10:26;;;;;;;0.40;0.20;;;12.00;57.60;;;;;;4993972;28;20526;-86
2022/04/17 12:12:53;;;;;;;0.40;0.20;;;12.10;58.00;;;;;;4992699;28;20464;-87
2022/04/17 12:15:21;;;;;;;0.37;0.27;;;12.90;64.00;;;;;;4999667;28;20455;-84
2022/04/17 12:17:59;;;;;;;0.40;0.20;;;13.30;58.40;;;;;;4996016;28;20489;-87
2022/04/17 12:20:27;;;;;;;0.30;0.20;;;13.00;59.30;;;;;;4993629;28;20490;-88
2022/04/17 12:22:55;;;;;;;0.30;0.20;;;12.50;57.10;;;;;;5003780;28;20997;-87
2022/04/17 12:25:23;;;;;;;0.30;0.20;;;12.20;58.00;;;;;;4998430;28;20907;-85
2022/04/17 12:27:53;;;;;;;0.30;0.20;;;12.00;58.70;;;;;;4997102;28;21117;-88
2022/04/17 12:30:21;;;;;;;0.30;0.20;;;11.90;57.70;;;;;;4992647;28;20471;-86
2022/04/17 12:32:49;;;;;;;2.17;0.30;;;12.20;59.30;;;;;;4991964;28;21284;-88
2022/04/17 12:35:25;;;;;;;0.37;0.23;;;12.70;60.10;;;;;;4988539;28;20464;-87
2022/04/17 12:38:03;;;;;;;0.40;0.20;;;12.50;57.50;;;;;;4989188;28;20495;-87
2022/04/17 12:40:31;;;;;;;0.37;0.23;;;12.00;56.40;;;;;;4995364;28;20474;-87
2022/04/17 12:43:15;;;;;;;0.40;0.20;;;12.50;55.50;;;;;;5001904;28;20464;-88
2022/04/17 12:45:56;;;;;;;0.40;0.20;;;12.70;58.00;;;;;;4992592;28;20975;-88
2022/04/17 12:48:32;;;;;;;0.30;0.20;;;13.00;56.50;;;;;;5004126;28;21008;-87
2022/04/17 12:51:03;;;;;;;0.30;0.20;;;12.60;57.40;;;;;;5002076;28;20562;-86
2022/04/17 12:53:38;;;;;;;0.40;0.30;;;12.50;56.60;;;;;;5002888;28;20540;-88
2022/04/17 12:56:07;;;;;;;0.30;0.30;;;12.00;56.70;;;;;;5000106;28;20466;-87
2022/04/17 12:58:52;;;;;;;0.30;0.20;;;11.70;57.70;;;;;;5012003;28;20513;-87
2022/04/17 13:01:21;;;;;;;0.40;0.20;;;11.50;57.00;;;;;;5003203;28;21017;-87
2022/04/17 13:03:49;;;;;;;0.50;0.30;;;11.40;60.20;;;;;;4999227;28;21592;-87
2022/04/17 13:06:20;;;;;;;0.30;0.20;;;11.30;58.30;;;;;;5004804;28;20467;-86
2022/04/17 13:09:06;;;;;;;0.40;0.40;;;11.50;59.70;;;;;;5006119;28;20468;-89
2022/04/17 13:11:36;;;;;;;0.30;0.20;;;11.70;59.40;;;;;;5005835;28;20928;-88
2022/04/17 13:14:06;;;;;;;0.30;0.20;;;11.60;58.20;;;;;;5002219;28;20587;-87